Terminal Aerodrome Forecast
Issued by NWS

Home | Current Version | Previous Version | Text Only | Print | Product List | Glossary On
Versions: 1 2 3 4 5 6 7 8 9 10 11 12 13 14 15 16 17 18 19 20 21
000
FTUS45 KGJT 210536
TAFTEX
TAF
KTEX 210536Z 2106/2206 00000KT 1SM -SN BKN002 BKN008 OVC011
      TEMPO 2106/2110 2SM -SN SCT009 BKN013
     FM211000 27005KT P6SM VCSH BKN015 BKN030
     FM211600 29007KT P6SM BKN035 BKN060
     FM211800 30008KT P6SM FEW040 SCT080
     FM220200 13004KT P6SM FEW045 SCT100=

USA.gov is the U.S. government's official web portal to all federal, state and local government web resources and services.